createdAt,value
2022-12-31T00:00:22.771Z,20.15
2022-12-31T00:02:50.137Z,20.13
2022-12-31T00:05:17.617Z,20.13
2022-12-31T00:07:44.924Z,20.13
2022-12-31T00:10:12.166Z,20.12
2022-12-31T00:12:39.501Z,20.11
2022-12-31T00:15:07.537Z,20.10
2022-12-31T00:17:35.230Z,20.11
2022-12-31T00:20:02.728Z,20.09
2022-12-31T00:22:29.986Z,20.09
2022-12-31T00:24:57.396Z,20.10
2022-12-31T00:27:24.664Z,20.09
2022-12-31T00:29:52.005Z,20.08
2022-12-31T00:32:19.669Z,20.09
2022-12-31T00:34:46.950Z,20.07
2022-12-31T00:37:14.239Z,20.07
2022-12-31T00:39:41.561Z,20.07
2022-12-31T00:42:08.822Z,20.06
2022-12-31T00:44:36.061Z,20.06
2022-12-31T00:47:03.444Z,20.05
2022-12-31T00:49:30.737Z,20.06
2022-12-31T00:51:58.054Z,20.06
2022-12-31T00:54:25.423Z,20.06
2022-12-31T00:56:56.098Z,20.07
2022-12-31T00:59:23.398Z,20.05
2022-12-31T01:01:51.306Z,20.06
2022-12-31T01:04:21.020Z,20.06
2022-12-31T01:06:48.362Z,20.05
2022-12-31T01:09:17.075Z,20.05
2022-12-31T01:11:44.734Z,20.06
2022-12-31T01:14:15.366Z,20.06
2022-12-31T01:16:51.350Z,20.05
2022-12-31T01:19:27.801Z,20.05
2022-12-31T01:21:56.532Z,20.05
2022-12-31T01:24:24.147Z,20.03
2022-12-31T01:26:51.741Z,20.04
2022-12-31T01:29:19.053Z,20.04
2022-12-31T01:31:46.436Z,20.05
2022-12-31T01:34:13.736Z,20.04
2022-12-31T01:36:40.936Z,20.05
2022-12-31T01:39:09.783Z,20.04
2022-12-31T01:41:42.718Z,20.03
2022-12-31T01:44:12.875Z,20.03
2022-12-31T01:46:46.178Z,20.03
2022-12-31T01:49:42.781Z,20.03
2022-12-31T01:52:15.565Z,20.02
2022-12-31T01:54:47.169Z,20.02
2022-12-31T01:57:15.760Z,20.02
2022-12-31T01:59:45.250Z,20.02
2022-12-31T02:02:14.499Z,20.02
2022-12-31T02:04:42.103Z,20.02
2022-12-31T02:07:11.385Z,20.01
2022-12-31T02:09:41.141Z,20.01
2022-12-31T02:12:09.735Z,20.00
2022-12-31T02:14:42.267Z,19.99
2022-12-31T02:17:12.326Z,19.99
2022-12-31T02:19:58.223Z,19.99
2022-12-31T02:23:05.656Z,19.99
2022-12-31T02:25:50.989Z,19.98
2022-12-31T02:28:27.323Z,19.98
2022-12-31T02:31:01.995Z,19.98
2022-12-31T02:33:50.016Z,19.99
2022-12-31T02:36:26.419Z,19.98
2022-12-31T02:38:54.931Z,19.98
2022-12-31T02:41:40.871Z,19.97
2022-12-31T02:44:38.224Z,19.98
2022-12-31T02:47:08.388Z,19.98
2022-12-31T02:49:44.456Z,19.98
2022-12-31T02:52:20.655Z,19.98
2022-12-31T02:54:54.373Z,19.98
2022-12-31T02:57:51.002Z,19.96
2022-12-31T03:00:37.003Z,19.98
2022-12-31T03:03:07.993Z,19.97
2022-12-31T03:05:40.342Z,19.97
2022-12-31T03:08:08.078Z,19.97
2022-12-31T03:10:36.353Z,19.96
2022-12-31T03:13:03.981Z,19.95
2022-12-31T03:15:33.353Z,19.96
2022-12-31T03:18:06.286Z,19.96
2022-12-31T03:21:07.014Z,19.96
2022-12-31T03:23:51.919Z,19.97
2022-12-31T03:26:19.411Z,19.96
2022-12-31T03:28:47.859Z,19.95
2022-12-31T03:31:16.476Z,19.95
2022-12-31T03:33:43.860Z,19.95
2022-12-31T03:36:14.874Z,19.95
2022-12-31T03:38:42.172Z,19.94
2022-12-31T03:41:11.188Z,19.95
2022-12-31T03:43:38.579Z,19.94
2022-12-31T03:46:06.480Z,19.95
2022-12-31T03:48:33.885Z,19.93
2022-12-31T03:51:01.251Z,19.94
2022-12-31T03:53:28.502Z,19.94
2022-12-31T03:55:55.835Z,19.94
2022-12-31T03:58:23.328Z,19.93
2022-12-31T04:00:51.121Z,19.92
2022-12-31T04:03:18.626Z,19.92
2022-12-31T04:05:52.727Z,19.93
2022-12-31T04:08:19.933Z,19.92
2022-12-31T04:10:47.826Z,19.92
2022-12-31T04:13:15.066Z,19.93
2022-12-31T04:15:42.341Z,19.93
2022-12-31T04:18:09.695Z,19.92
2022-12-31T04:20:37.040Z,19.92
2022-12-31T04:23:04.569Z,19.92
2022-12-31T04:25:31.974Z,19.92
2022-12-31T04:27:59.349Z,19.92
2022-12-31T04:30:26.642Z,19.91
2022-12-31T04:32:53.820Z,19.91
2022-12-31T04:35:21.090Z,19.91
2022-12-31T04:37:48.341Z,19.91
2022-12-31T04:40:15.697Z,19.90
2022-12-31T04:42:42.985Z,19.90
2022-12-31T04:45:10.666Z,19.91
2022-12-31T04:47:37.927Z,19.90
2022-12-31T04:50:05.780Z,19.90
2022-12-31T04:52:37.158Z,19.90
2022-12-31T04:55:09.699Z,19.91
2022-12-31T04:57:36.959Z,19.89
2022-12-31T05:00:04.711Z,19.90
2022-12-31T05:02:32.033Z,19.90
2022-12-31T05:04:59.521Z,19.90
2022-12-31T05:07:26.824Z,19.90
2022-12-31T05:09:54.107Z,19.88
2022-12-31T05:12:21.396Z,19.89
2022-12-31T05:14:48.648Z,19.89
2022-12-31T05:17:15.917Z,19.89
2022-12-31T05:19:43.189Z,19.88
2022-12-31T05:22:28.933Z,19.89
2022-12-31T05:25:00.941Z,19.88
2022-12-31T05:27:31.279Z,19.88
2022-12-31T05:29:59.758Z,19.88
2022-12-31T05:32:27.266Z,19.88
2022-12-31T05:34:54.666Z,19.87
2022-12-31T05:37:21.912Z,19.87
2022-12-31T05:39:49.312Z,19.87
2022-12-31T05:42:16.689Z,19.85
2022-12-31T05:44:44.039Z,19.86
2022-12-31T05:47:11.340Z,19.85
2022-12-31T05:49:38.682Z,19.85
2022-12-31T05:52:06.793Z,19.86
2022-12-31T05:54:34.077Z,19.86
2022-12-31T05:57:01.337Z,19.85
2022-12-31T05:59:28.680Z,19.86
2022-12-31T06:01:55.976Z,19.85
2022-12-31T06:04:23.898Z,19.85
2022-12-31T06:06:51.233Z,19.85
2022-12-31T06:09:19.573Z,19.84
2022-12-31T06:11:47.410Z,19.84
2022-12-31T06:14:14.960Z,19.85
2022-12-31T06:16:43.275Z,19.84
2022-12-31T06:19:10.585Z,19.85
2022-12-31T06:21:37.936Z,19.84
2022-12-31T06:24:05.521Z,19.84
2022-12-31T06:26:32.816Z,19.84
2022-12-31T06:29:00.119Z,19.84
2022-12-31T06:31:27.400Z,19.85
2022-12-31T06:33:55.134Z,19.84
2022-12-31T06:36:22.502Z,19.84
2022-12-31T06:38:50.752Z,19.84
2022-12-31T06:41:18.752Z,19.85
2022-12-31T06:43:46.113Z,19.84
2022-12-31T06:46:16.143Z,19.85
2022-12-31T06:48:44.975Z,19.85
2022-12-31T06:51:18.167Z,19.84
2022-12-31T06:53:46.074Z,19.83
2022-12-31T06:56:23.401Z,19.84
2022-12-31T06:58:54.245Z,19.84
2022-12-31T07:01:33.384Z,19.84
2022-12-31T07:04:19.251Z,19.84
2022-12-31T07:06:57.339Z,19.85
2022-12-31T07:09:43.045Z,19.85
2022-12-31T07:12:20.905Z,19.81
2022-12-31T07:15:26.663Z,19.75
2022-12-31T07:18:22.734Z,19.67
2022-12-31T07:20:50.292Z,19.62
2022-12-31T07:23:17.875Z,19.51
2022-12-31T07:25:56.170Z,19.45
2022-12-31T07:29:17.203Z,19.45
2022-12-31T07:32:01.144Z,19.49
2022-12-31T07:34:39.932Z,19.56
2022-12-31T07:37:36.036Z,19.57
2022-12-31T07:40:14.245Z,19.61
2022-12-31T07:43:14.010Z,19.63
2022-12-31T07:45:48.563Z,19.64
2022-12-31T07:48:25.254Z,19.65
2022-12-31T07:50:54.835Z,19.67
2022-12-31T07:53:25.685Z,19.68
2022-12-31T07:56:01.956Z,19.68
2022-12-31T07:58:50.223Z,19.70
2022-12-31T08:01:30.642Z,19.70
2022-12-31T08:04:24.274Z,19.71
2022-12-31T08:07:11.663Z,19.71
2022-12-31T08:09:47.866Z,19.72
2022-12-31T08:12:15.727Z,19.73
2022-12-31T08:14:46.272Z,19.73
2022-12-31T08:17:15.931Z,19.74
2022-12-31T08:19:43.528Z,19.74
2022-12-31T08:22:30.103Z,19.75
2022-12-31T08:25:34.797Z,19.75
2022-12-31T08:28:37.217Z,19.76
2022-12-31T08:31:10.788Z,19.78
2022-12-31T08:34:05.565Z,19.78
2022-12-31T08:36:45.303Z,19.79
2022-12-31T08:39:34.858Z,19.78
2022-12-31T08:42:05.111Z,19.79
2022-12-31T08:45:13.136Z,19.80
2022-12-31T08:47:59.519Z,19.80
2022-12-31T08:50:28.037Z,19.81
2022-12-31T08:52:55.886Z,19.81
2022-12-31T08:55:23.488Z,19.82
2022-12-31T08:58:18.125Z,19.82
2022-12-31T09:00:46.599Z,19.82
2022-12-31T09:03:45.039Z,19.83
2022-12-31T09:06:34.002Z,19.83
2022-12-31T09:09:10.271Z,19.84
2022-12-31T09:11:46.771Z,19.84
2022-12-31T09:14:35.604Z,19.85
2022-12-31T09:17:32.174Z,19.85
2022-12-31T09:19:59.679Z,19.85
2022-12-31T09:22:27.297Z,19.86
2022-12-31T09:24:54.852Z,19.86
2022-12-31T09:27:28.335Z,19.88
2022-12-31T09:30:16.313Z,19.87
2022-12-31T09:33:07.293Z,19.88
2022-12-31T09:35:56.795Z,19.88
2022-12-31T09:38:35.839Z,19.88
2022-12-31T09:41:32.222Z,19.88
2022-12-31T09:44:24.532Z,19.88
2022-12-31T09:47:19.416Z,19.87
2022-12-31T09:50:08.452Z,19.87
2022-12-31T09:52:56.004Z,19.87
2022-12-31T09:55:54.164Z,19.87
2022-12-31T09:58:52.290Z,19.88
2022-12-31T10:01:37.721Z,19.88
2022-12-31T10:04:23.499Z,19.89
2022-12-31T10:07:13.447Z,19.90
2022-12-31T10:09:59.054Z,19.89
2022-12-31T10:13:03.692Z,19.89
2022-12-31T10:16:15.543Z,19.90
2022-12-31T10:19:33.893Z,19.92
2022-12-31T10:22:16.187Z,19.92
2022-12-31T10:24:53.168Z,19.94
2022-12-31T10:27:39.686Z,19.94
2022-12-31T10:30:17.701Z,19.91
2022-12-31T10:32:54.289Z,19.92
2022-12-31T10:35:53.373Z,19.95
2022-12-31T10:38:39.279Z,19.97
2022-12-31T10:41:28.209Z,19.99
2022-12-31T10:44:07.235Z,20.03
2022-12-31T10:46:56.044Z,20.02
2022-12-31T10:50:12.267Z,20.05
2022-12-31T10:53:24.205Z,20.05
2022-12-31T10:56:15.803Z,20.03
2022-12-31T10:59:21.406Z,20.00
2022-12-31T11:02:15.794Z,19.94
2022-12-31T11:05:05.026Z,19.91
2022-12-31T11:07:35.363Z,19.92
2022-12-31T11:10:29.710Z,19.93
2022-12-31T11:13:34.826Z,19.95
2022-12-31T11:16:20.744Z,19.96
2022-12-31T11:18:57.245Z,19.93
2022-12-31T11:21:30.398Z,19.89
2022-12-31T11:24:18.479Z,19.89
2022-12-31T11:27:14.762Z,19.91
2022-12-31T11:30:04.591Z,19.94
2022-12-31T11:32:48.367Z,19.96
2022-12-31T11:35:18.526Z,19.98
2022-12-31T11:37:58.559Z,19.99
2022-12-31T11:40:28.759Z,20.00
2022-12-31T11:43:01.172Z,20.02
2022-12-31T11:45:57.905Z,20.02
2022-12-31T11:48:47.349Z,20.03
2022-12-31T11:51:51.042Z,20.05
2022-12-31T11:54:27.158Z,20.05
2022-12-31T11:57:23.183Z,20.06
2022-12-31T12:00:04.545Z,20.05
2022-12-31T12:02:45.558Z,20.05
2022-12-31T12:05:20.340Z,20.04
2022-12-31T12:07:49.183Z,20.05
2022-12-31T12:10:35.608Z,20.05
2022-12-31T12:13:28.592Z,20.05
2022-12-31T12:15:59.376Z,20.07
2022-12-31T12:18:50.867Z,20.08
2022-12-31T12:21:23.880Z,20.09
2022-12-31T12:23:58.269Z,20.10
2022-12-31T12:26:29.814Z,20.08
2022-12-31T12:29:01.488Z,20.10
2022-12-31T12:31:28.856Z,20.09
2022-12-31T12:33:56.247Z,20.09
2022-12-31T12:36:23.569Z,20.10
2022-12-31T12:39:07.142Z,20.11
2022-12-31T12:41:34.567Z,20.11
2022-12-31T12:44:06.192Z,20.11
2022-12-31T12:46:39.486Z,20.12
2022-12-31T12:49:28.951Z,20.12
2022-12-31T12:52:27.218Z,20.13
2022-12-31T12:55:04.233Z,20.16
2022-12-31T12:57:58.625Z,20.16
2022-12-31T13:00:51.437Z,20.16
2022-12-31T13:03:21.872Z,20.17
2022-12-31T13:05:55.991Z,20.16
2022-12-31T13:08:35.117Z,20.18
2022-12-31T13:11:37.240Z,20.18
2022-12-31T13:14:28.990Z,20.21
2022-12-31T13:17:25.300Z,20.20
2022-12-31T13:19:55.508Z,20.20
2022-12-31T13:22:40.786Z,20.19
2022-12-31T13:25:34.410Z,20.19
2022-12-31T13:28:08.727Z,20.19
2022-12-31T13:30:49.498Z,20.19
2022-12-31T13:33:26.327Z,20.20
2022-12-31T13:36:08.943Z,20.21
2022-12-31T13:38:40.478Z,20.22
2022-12-31T13:41:34.380Z,20.23
2022-12-31T13:44:27.406Z,20.21
2022-12-31T13:47:13.769Z,20.22
2022-12-31T13:49:49.779Z,20.21
2022-12-31T13:52:41.566Z,20.22
2022-12-31T13:55:44.832Z,20.22
2022-12-31T13:58:53.164Z,20.22
2022-12-31T14:01:25.390Z,20.22
2022-12-31T14:04:04.671Z,20.22
2022-12-31T14:06:38.908Z,20.21
2022-12-31T14:09:06.777Z,20.21
2022-12-31T14:11:45.962Z,20.21
2022-12-31T14:14:31.599Z,20.21
2022-12-31T14:17:07.618Z,20.22
2022-12-31T14:19:56.131Z,20.22
2022-12-31T14:22:36.167Z,20.20
2022-12-31T14:25:14.399Z,20.20
2022-12-31T14:27:44.598Z,20.22
2022-12-31T14:30:22.062Z,20.23
2022-12-31T14:33:04.596Z,20.23
2022-12-31T14:35:34.933Z,20.23
2022-12-31T14:38:19.403Z,20.24
2022-12-31T14:41:26.659Z,20.23
2022-12-31T14:44:20.396Z,20.23
2022-12-31T14:47:00.631Z,20.25
2022-12-31T14:49:39.271Z,20.26
2022-12-31T14:52:09.518Z,20.25
2022-12-31T14:54:38.208Z,20.25
2022-12-31T14:57:18.168Z,20.25
2022-12-31T15:00:13.217Z,20.27
2022-12-31T15:02:53.582Z,20.28
2022-12-31T15:05:24.081Z,20.27
2022-12-31T15:08:25.229Z,20.28
2022-12-31T15:11:36.897Z,20.28
2022-12-31T15:14:25.561Z,20.29
2022-12-31T15:17:31.008Z,20.22
2022-12-31T15:20:32.614Z,20.07
2022-12-31T15:23:00.156Z,20.05
2022-12-31T15:25:33.881Z,20.05
2022-12-31T15:28:07.049Z,20.05
2022-12-31T15:30:45.209Z,20.07
2022-12-31T15:33:30.844Z,20.09
2022-12-31T15:36:10.641Z,20.09
2022-12-31T15:38:39.602Z,20.10
2022-12-31T15:41:42.939Z,20.12
2022-12-31T15:44:49.361Z,20.14
2022-12-31T15:47:19.556Z,20.15
2022-12-31T15:49:47.700Z,20.15
2022-12-31T15:52:25.567Z,20.15
2022-12-31T15:54:56.168Z,20.16
2022-12-31T15:57:37.752Z,20.17
2022-12-31T16:00:09.404Z,20.16
2022-12-31T16:02:43.072Z,20.18
2022-12-31T16:05:25.966Z,20.18
2022-12-31T16:07:58.516Z,20.17
2022-12-31T16:10:33.405Z,20.16
2022-12-31T16:13:00.999Z,20.16
2022-12-31T16:15:31.565Z,20.15
2022-12-31T16:18:09.903Z,20.16
2022-12-31T16:20:43.271Z,20.16
2022-12-31T16:23:23.585Z,20.17
2022-12-31T16:25:54.614Z,20.18
2022-12-31T16:28:30.640Z,20.17
2022-12-31T16:31:01.983Z,20.17
2022-12-31T16:33:31.203Z,20.17
2022-12-31T16:36:01.694Z,20.16
2022-12-31T16:38:34.854Z,20.16
2022-12-31T16:41:02.409Z,20.18
2022-12-31T16:43:37.374Z,20.16
2022-12-31T16:46:27.604Z,20.17
2022-12-31T16:49:15.782Z,20.16
2022-12-31T16:51:44.743Z,20.18
2022-12-31T16:54:43.905Z,20.20
2022-12-31T16:57:21.481Z,20.22
2022-12-31T16:59:54.622Z,20.23
2022-12-31T17:02:38.818Z,20.24
2022-12-31T17:05:22.074Z,20.24
2022-12-31T17:07:49.665Z,20.25
2022-12-31T17:10:24.256Z,20.26
2022-12-31T17:13:28.305Z,20.27
2022-12-31T17:15:47.835Z,20.28
2022-12-31T17:18:24.183Z,20.29
2022-12-31T17:20:53.452Z,20.28
2022-12-31T17:23:28.294Z,20.27
2022-12-31T17:26:07.625Z,20.27
2022-12-31T17:28:46.986Z,20.25
2022-12-31T17:32:00.062Z,20.25
2022-12-31T17:34:33.958Z,20.25
2022-12-31T17:37:03.423Z,20.25
2022-12-31T17:39:44.483Z,20.25
2022-12-31T17:42:13.831Z,20.24
2022-12-31T17:44:43.745Z,20.25
2022-12-31T17:47:14.127Z,20.24
2022-12-31T17:49:44.998Z,20.27
2022-12-31T17:52:14.397Z,20.25
2022-12-31T17:54:42.438Z,20.25
2022-12-31T17:57:26.209Z,20.24
2022-12-31T17:59:54.089Z,20.24
2022-12-31T18:02:21.508Z,20.23
2022-12-31T18:04:48.780Z,20.23
2022-12-31T18:07:16.014Z,20.23
2022-12-31T18:09:43.194Z,20.23
2022-12-31T18:12:12.549Z,20.23
2022-12-31T18:14:41.030Z,20.24
2022-12-31T18:17:15.247Z,20.23
2022-12-31T18:22:30.376Z,20.23
2022-12-31T18:24:57.613Z,20.23
2022-12-31T18:27:25.021Z,20.23
2022-12-31T18:29:52.292Z,20.23
2022-12-31T18:32:28.370Z,20.23
2022-12-31T18:34:55.636Z,20.23
2022-12-31T18:37:23.095Z,20.22
2022-12-31T18:39:50.427Z,20.22
2022-12-31T18:42:19.205Z,20.22
2022-12-31T18:44:46.884Z,20.21
2022-12-31T18:47:16.862Z,20.22
2022-12-31T18:49:48.743Z,20.21
2022-12-31T18:52:18.500Z,20.20
2022-12-31T18:54:46.246Z,20.21
2022-12-31T18:57:15.478Z,20.21
2022-12-31T18:59:42.895Z,20.21
2022-12-31T19:02:18.006Z,20.21
2022-12-31T19:04:46.035Z,20.21
2022-12-31T19:07:13.425Z,20.21
2022-12-31T19:09:45.587Z,20.21
2022-12-31T19:12:14.621Z,20.21
2022-12-31T19:14:41.989Z,20.21
2022-12-31T19:19:35.493Z,20.21
2022-12-31T19:22:02.984Z,20.21
2022-12-31T19:24:30.556Z,20.21
2022-12-31T19:26:57.804Z,20.20
2022-12-31T19:29:27.206Z,20.19
2022-12-31T19:31:54.967Z,20.17
2022-12-31T19:34:22.296Z,20.17
2022-12-31T19:36:49.661Z,20.19
2022-12-31T19:39:20.240Z,20.17
2022-12-31T19:41:54.623Z,20.17
2022-12-31T19:44:23.683Z,20.17
2022-12-31T19:46:51.032Z,20.17
2022-12-31T19:49:18.367Z,20.16
2022-12-31T19:51:45.683Z,20.16
2022-12-31T19:54:13.507Z,20.18
2022-12-31T19:56:40.923Z,20.17
2022-12-31T19:59:10.281Z,20.18
2022-12-31T20:01:37.931Z,20.17
2022-12-31T20:04:05.614Z,20.17
2022-12-31T20:06:32.983Z,20.17
2022-12-31T20:09:00.252Z,20.19
2022-12-31T20:11:27.591Z,20.19
2022-12-31T20:13:54.913Z,20.19
2022-12-31T20:16:26.884Z,20.19
2022-12-31T20:18:54.669Z,20.21
2022-12-31T20:21:25.129Z,20.19
2022-12-31T20:23:54.023Z,20.20
2022-12-31T20:26:23.472Z,20.19
2022-12-31T20:28:52.111Z,20.21
2022-12-31T20:31:23.449Z,20.19
2022-12-31T20:33:51.276Z,20.21
2022-12-31T20:36:18.625Z,20.20
2022-12-31T20:38:46.524Z,20.19
2022-12-31T20:41:19.184Z,20.21
2022-12-31T20:43:46.877Z,20.19
2022-12-31T20:46:22.882Z,20.18
2022-12-31T20:48:52.265Z,20.19
2022-12-31T20:51:20.865Z,20.20
2022-12-31T20:53:59.690Z,20.19
2022-12-31T20:56:29.426Z,20.19
2022-12-31T20:58:57.298Z,20.19
2022-12-31T21:01:25.591Z,20.18
2022-12-31T21:04:09.647Z,20.18
2022-12-31T21:06:37.171Z,20.18
2022-12-31T21:09:07.431Z,20.17
2022-12-31T21:11:53.612Z,20.17
2022-12-31T21:14:21.568Z,20.16
2022-12-31T21:16:48.907Z,20.15
2022-12-31T21:19:16.233Z,20.15
2022-12-31T21:21:43.531Z,20.16
2022-12-31T21:24:11.231Z,20.16
2022-12-31T21:26:38.553Z,20.15
2022-12-31T21:29:06.023Z,20.15
2022-12-31T21:31:33.499Z,20.15
2022-12-31T21:34:00.940Z,20.14
2022-12-31T21:36:28.350Z,20.15
2022-12-31T21:38:55.838Z,20.15
2022-12-31T21:41:42.028Z,20.16
2022-12-31T21:44:09.625Z,20.15
2022-12-31T21:46:37.128Z,20.15
2022-12-31T21:49:04.519Z,20.16
2022-12-31T21:51:31.961Z,20.15
2022-12-31T21:53:59.366Z,20.15
2022-12-31T21:56:26.949Z,20.15
2022-12-31T21:59:15.141Z,20.14
2022-12-31T22:02:01.615Z,20.14
2022-12-31T22:05:01.375Z,20.14
2022-12-31T22:07:17.069Z,20.13
2022-12-31T22:09:44.425Z,20.14
2022-12-31T22:12:12.008Z,20.13
2022-12-31T22:14:39.450Z,20.13
2022-12-31T22:17:26.767Z,20.13
2022-12-31T22:20:25.321Z,20.14
2022-12-31T22:22:41.339Z,20.13
2022-12-31T22:25:09.144Z,20.11
2022-12-31T22:27:36.382Z,20.13
2022-12-31T22:30:04.535Z,20.12
2022-12-31T22:32:31.815Z,20.12
2022-12-31T22:34:59.133Z,20.13
2022-12-31T22:40:13.820Z,20.11
2022-12-31T22:42:41.475Z,20.11
2022-12-31T22:45:09.459Z,20.11
2022-12-31T22:47:36.769Z,20.12
2022-12-31T22:50:04.546Z,20.12
2022-12-31T22:52:31.906Z,20.11
2022-12-31T22:54:59.152Z,20.11
2022-12-31T22:57:26.501Z,20.10
2022-12-31T22:59:53.703Z,20.11
2022-12-31T23:02:21.037Z,20.10
2022-12-31T23:04:48.388Z,20.11
2022-12-31T23:07:15.696Z,20.10
2022-12-31T23:10:01.348Z,20.10
2022-12-31T23:12:28.975Z,20.10
2022-12-31T23:15:14.952Z,20.10
2022-12-31T23:18:00.944Z,20.09
2022-12-31T23:20:46.768Z,20.09
2022-12-31T23:23:16.196Z,20.08
2022-12-31T23:25:46.665Z,20.08
2022-12-31T23:28:16.768Z,20.09
2022-12-31T23:30:44.330Z,20.08
2022-12-31T23:33:17.611Z,20.08
2022-12-31T23:35:45.175Z,20.08
2022-12-31T23:38:13.399Z,20.09
2022-12-31T23:40:40.750Z,20.09
2022-12-31T23:43:10.227Z,20.09
2022-12-31T23:45:37.723Z,20.09
2022-12-31T23:48:05.218Z,20.11
2022-12-31T23:50:32.534Z,20.10
2022-12-31T23:52:59.912Z,20.10
2022-12-31T23:55:27.231Z,20.11
2022-12-31T23:57:55.173Z,20.10
